Hillsborough, New Hampshire
Current Conditions -  °F | °C
As of 11:51 AM on Sunday 23 Nov 2014 (Local Time) from KCON Reporting Station
Few Clouds Few Clouds  
Wind Chill: 55°   Ceiling: Unl
Heat Index: 55°   Visibility: 10mi
Dew Point: 39°   Wind: 9mph
Humidity: 55%   Direction: 210°SSW
Pressure: 30.07"   Gusts: NA
Location:  43.1281°N, 71.9266°W
Report Text: KCON 231651Z AUTO 21008KT 10SM FEW033 13/04 A3007 RMK AO2 SLP185 T01280039
Loading
Personal Weather Stations






























Interactive Weather Map New forecast layout! Learn more

10-Day Weather Forecast

Advertisements
Track Severe Weather on mobile